sensor_id;sensor_type;location;lat;lon;timestamp;pressure;altitude;pressure_sealevel;temperature;humidity
72925;BME280;61070;50.794;7.054;2024-03-02T00:00:25;99593.50;;;7.72;67.98
72925;BME280;61070;50.794;7.054;2024-03-02T00:01:27;99590.34;;;7.65;68.25
72925;BME280;61070;50.794;7.054;2024-03-02T00:02:27;99589.81;;;7.76;67.91
72925;BME280;61070;50.794;7.054;2024-03-02T00:03:27;99592.91;;;7.67;68.14
72925;BME280;61070;50.794;7.054;2024-03-02T00:04:27;99592.56;;;7.73;68.06
72925;BME280;61070;50.794;7.054;2024-03-02T00:05:28;99590.56;;;7.78;67.56
72925;BME280;61070;50.794;7.054;2024-03-02T00:06:28;99582.28;;;7.70;68.10
72925;BME280;61070;50.794;7.054;2024-03-02T00:07:29;99590.56;;;7.78;67.62
72925;BME280;61070;50.794;7.054;2024-03-02T00:08:29;99582.03;;;7.74;67.52
72925;BME280;61070;50.794;7.054;2024-03-02T00:09:30;99583.75;;;7.91;67.28
72925;BME280;61070;50.794;7.054;2024-03-02T00:10:38;99591.59;;;7.91;67.05
72925;BME280;61070;50.794;7.054;2024-03-02T00:11:41;99588.69;;;7.80;67.55
72925;BME280;61070;50.794;7.054;2024-03-02T00:12:42;99591.66;;;7.74;67.51
72925;BME280;61070;50.794;7.054;2024-03-02T00:13:42;99586.66;;;7.85;67.43
72925;BME280;61070;50.794;7.054;2024-03-02T00:14:43;99591.41;;;7.94;67.24
72925;BME280;61070;50.794;7.054;2024-03-02T00:15:47;99589.56;;;7.96;67.04
72925;BME280;61070;50.794;7.054;2024-03-02T00:16:47;99583.66;;;7.93;67.09
72925;BME280;61070;50.794;7.054;2024-03-02T00:17:53;99586.50;;;7.88;67.44
72925;BME280;61070;50.794;7.054;2024-03-02T00:18:53;99583.56;;;7.78;67.55
72925;BME280;61070;50.794;7.054;2024-03-02T00:19:54;99590.31;;;7.83;67.72
72925;BME280;61070;50.794;7.054;2024-03-02T00:20:55;99579.16;;;7.79;67.53
72925;BME280;61070;50.794;7.054;2024-03-02T00:21:56;99584.25;;;7.82;67.33
72925;BME280;61070;50.794;7.054;2024-03-02T00:23:04;99578.47;;;7.75;67.87
72925;BME280;61070;50.794;7.054;2024-03-02T00:24:17;99574.63;;;7.83;67.56
72925;BME280;61070;50.794;7.054;2024-03-02T00:25:18;99577.56;;;7.76;67.77
72925;BME280;61070;50.794;7.054;2024-03-02T00:26:19;99578.41;;;7.93;67.08
72925;BME280;61070;50.794;7.054;2024-03-02T00:27:19;99577.38;;;7.95;66.85
72925;BME280;61070;50.794;7.054;2024-03-02T00:28:33;99575.47;;;7.99;66.93
72925;BME280;61070;50.794;7.054;2024-03-02T00:29:34;99569.88;;;7.89;67.30
72925;BME280;61070;50.794;7.054;2024-03-02T00:31:57;99574.13;;;7.92;67.08
72925;BME280;61070;50.794;7.054;2024-03-02T00:32:59;99565.59;;;7.88;66.91
72925;BME280;61070;50.794;7.054;2024-03-02T00:34:02;99562.97;;;7.88;66.92
72925;BME280;61070;50.794;7.054;2024-03-02T00:35:05;99569.63;;;7.94;67.06
72925;BME280;61070;50.794;7.054;2024-03-02T00:36:06;99562.97;;;7.88;66.97
72925;BME280;61070;50.794;7.054;2024-03-02T00:37:07;99566.44;;;7.89;67.07
72925;BME280;61070;50.794;7.054;2024-03-02T00:38:08;99565.09;;;7.82;67.51
72925;BME280;61070;50.794;7.054;2024-03-02T00:39:12;99562.03;;;7.89;66.99
72925;BME280;61070;50.794;7.054;2024-03-02T00:40:13;99560.22;;;7.91;66.80
72925;BME280;61070;50.794;7.054;2024-03-02T00:41:29;99558.59;;;7.89;66.98
72925;BME280;61070;50.794;7.054;2024-03-02T00:42:31;99559.88;;;7.97;66.47
72925;BME280;61070;50.794;7.054;2024-03-02T00:44:50;99557.50;;;7.93;66.90
72925;BME280;61070;50.794;7.054;2024-03-02T00:45:50;99561.78;;;7.94;66.51
72925;BME280;61070;50.794;7.054;2024-03-02T00:46:50;99558.69;;;7.87;66.99
72925;BME280;61070;50.794;7.054;2024-03-02T00:47:51;99560.03;;;7.94;66.49
72925;BME280;61070;50.794;7.054;2024-03-02T00:48:54;99555.22;;;7.87;66.75
72925;BME280;61070;50.794;7.054;2024-03-02T00:49:55;99549.47;;;7.80;67.05
72925;BME280;61070;50.794;7.054;2024-03-02T00:50:55;99556.56;;;7.78;67.05
72925;BME280;61070;50.794;7.054;2024-03-02T00:51:56;99560.03;;;7.78;67.29
72925;BME280;61070;50.794;7.054;2024-03-02T00:52:56;99550.41;;;7.79;67.09
72925;BME280;61070;50.794;7.054;2024-03-02T00:54:02;99553.78;;;7.81;66.76
72925;BME280;61070;50.794;7.054;2024-03-02T00:55:04;99557.56;;;7.75;66.71
72925;BME280;61070;50.794;7.054;2024-03-02T00:56:09;99560.50;;;7.69;67.24
72925;BME280;61070;50.794;7.054;2024-03-02T00:57:11;99554.00;;;7.61;67.45
72925;BME280;61070;50.794;7.054;2024-03-02T00:58:12;99554.53;;;7.67;67.24
72925;BME280;61070;50.794;7.054;2024-03-02T00:59:12;99555.47;;;7.66;67.24
72925;BME280;61070;50.794;7.054;2024-03-02T01:00:13;99553.78;;;7.81;67.00
72925;BME280;61070;50.794;7.054;2024-03-02T01:01:15;99558.59;;;7.73;67.21
72925;BME280;61070;50.794;7.054;2024-03-02T01:02:16;99556.06;;;7.71;66.87
72925;BME280;61070;50.794;7.054;2024-03-02T01:03:16;99558.47;;;7.59;67.31
72925;BME280;61070;50.794;7.054;2024-03-02T01:04:16;99547.44;;;7.54;67.52
72925;BME280;61070;50.794;7.054;2024-03-02T01:05:17;99557.63;;;7.58;67.67
72925;BME280;61070;50.794;7.054;2024-03-02T01:06:17;99548.13;;;7.57;67.42
72925;BME280;61070;50.794;7.054;2024-03-02T01:07:18;99556.91;;;7.56;67.44
72925;BME280;61070;50.794;7.054;2024-03-02T01:08:18;99549.88;;;7.57;67.34
72925;BME280;61070;50.794;7.054;2024-03-02T01:09:19;99556.53;;;7.46;67.90
72925;BME280;61070;50.794;7.054;2024-03-02T01:10:19;99554.78;;;7.78;66.94
72925;BME280;61070;50.794;7.054;2024-03-02T01:11:20;99549.41;;;7.66;67.17
72925;BME280;61070;50.794;7.054;2024-03-02T01:12:23;99545.84;;;7.67;66.91
72925;BME280;61070;50.794;7.054;2024-03-02T01:13:24;99551.16;;;7.65;66.94
72925;BME280;61070;50.794;7.054;2024-03-02T01:14:24;99552.75;;;7.68;66.88
72925;BME280;61070;50.794;7.054;2024-03-02T01:15:24;99550.59;;;7.76;66.63
72925;BME280;61070;50.794;7.054;2024-03-02T01:16:24;99558.09;;;7.66;67.00
72925;BME280;61070;50.794;7.054;2024-03-02T01:17:25;99556.56;;;7.62;66.98
72925;BME280;61070;50.794;7.054;2024-03-02T01:18:25;99553.41;;;7.56;67.21
72925;BME280;61070;50.794;7.054;2024-03-02T01:19:26;99546.84;;;7.48;67.60
72925;BME280;61070;50.794;7.054;2024-03-02T01:20:26;99552.56;;;7.55;67.56
72925;BME280;61070;50.794;7.054;2024-03-02T01:21:27;99547.63;;;7.66;66.88
72925;BME280;61070;50.794;7.054;2024-03-02T01:22:27;99538.75;;;7.69;66.92
72925;BME280;61070;50.794;7.054;2024-03-02T01:23:27;99544.09;;;7.67;66.76
72925;BME280;61070;50.794;7.054;2024-03-02T01:24:28;99547.38;;;7.71;66.59
72925;BME280;61070;50.794;7.054;2024-03-02T01:25:28;99543.25;;;7.67;67.01
72925;BME280;61070;50.794;7.054;2024-03-02T01:26:28;99543.50;;;7.78;66.38
72925;BME280;61070;50.794;7.054;2024-03-02T01:27:29;99536.00;;;7.72;66.62
72925;BME280;61070;50.794;7.054;2024-03-02T01:28:29;99537.81;;;7.70;66.61
72925;BME280;61070;50.794;7.054;2024-03-02T01:29:29;99540.69;;;7.65;66.55
72925;BME280;61070;50.794;7.054;2024-03-02T01:30:29;99546.09;;;7.62;66.84
72925;BME280;61070;50.794;7.054;2024-03-02T01:31:30;99542.09;;;7.55;67.08
72925;BME280;61070;50.794;7.054;2024-03-02T01:32:30;99540.28;;;7.57;67.07
72925;BME280;61070;50.794;7.054;2024-03-02T01:33:30;99539.34;;;7.58;67.12
72925;BME280;61070;50.794;7.054;2024-03-02T01:34:30;99527.97;;;7.59;67.01
72925;BME280;61070;50.794;7.054;2024-03-02T01:35:31;99541.97;;;7.58;66.82
72925;BME280;61070;50.794;7.054;2024-03-02T01:36:32;99533.63;;;7.51;67.19
72925;BME280;61070;50.794;7.054;2024-03-02T01:37:32;99536.72;;;7.58;67.03
72925;BME280;61070;50.794;7.054;2024-03-02T01:38:32;99545.91;;;7.65;66.77
72925;BME280;61070;50.794;7.054;2024-03-02T01:39:33;99535.47;;;7.65;66.64
72925;BME280;61070;50.794;7.054;2024-03-02T01:40:34;99534.31;;;7.71;66.23
72925;BME280;61070;50.794;7.054;2024-03-02T01:41:35;99536.66;;;7.75;66.12
72925;BME280;61070;50.794;7.054;2024-03-02T01:42:36;99532.59;;;7.70;66.30
72925;BME280;61070;50.794;7.054;2024-03-02T01:43:37;99527.22;;;7.73;66.11
72925;BME280;61070;50.794;7.054;2024-03-02T01:44:37;99537.16;;;7.82;65.65
72925;BME280;61070;50.794;7.054;2024-03-02T01:45:37;99535.81;;;7.75;65.95
72925;BME280;61070;50.794;7.054;2024-03-02T01:46:38;99534.13;;;7.74;65.84
72925;BME280;61070;50.794;7.054;2024-03-02T01:47:38;99528.97;;;7.88;65.32
72925;BME280;61070;50.794;7.054;2024-03-02T01:48:38;99530.00;;;7.86;65.65
72925;BME280;61070;50.794;7.054;2024-03-02T01:49:39;99525.09;;;7.80;65.58
72925;BME280;61070;50.794;7.054;2024-03-02T01:50:41;99523.25;;;7.82;65.53
72925;BME280;61070;50.794;7.054;2024-03-02T01:51:41;99518.63;;;7.71;65.80
72925;BME280;61070;50.794;7.054;2024-03-02T01:52:41;99529.47;;;7.79;65.25
72925;BME280;61070;50.794;7.054;2024-03-02T01:53:42;99529.56;;;7.77;65.70
72925;BME280;61070;50.794;7.054;2024-03-02T01:54:42;99519.22;;;7.76;65.70
72925;BME280;61070;50.794;7.054;2024-03-02T01:55:42;99517.59;;;7.73;65.84
72925;BME280;61070;50.794;7.054;2024-03-02T01:56:43;99523.84;;;7.71;65.81
72925;BME280;61070;50.794;7.054;2024-03-02T01:57:43;99528.06;;;7.73;65.65
72925;BME280;61070;50.794;7.054;2024-03-02T01:58:44;99532.44;;;7.73;65.66
72925;BME280;61070;50.794;7.054;2024-03-02T01:59:46;99532.88;;;7.81;65.39
72925;BME280;61070;50.794;7.054;2024-03-02T02:00:47;99528.03;;;7.89;65.23
72925;BME280;61070;50.794;7.054;2024-03-02T02:01:48;99519.44;;;8.03;64.88
72925;BME280;61070;50.794;7.054;2024-03-02T02:02:48;99521.81;;;7.92;65.04
72925;BME280;61070;50.794;7.054;2024-03-02T02:03:48;99520.63;;;7.97;64.88
72925;BME280;61070;50.794;7.054;2024-03-02T02:04:48;99523.84;;;8.02;64.67
72925;BME280;61070;50.794;7.054;2024-03-02T02:05:49;99522.06;;;8.03;64.73
72925;BME280;61070;50.794;7.054;2024-03-02T02:06:49;99519.25;;;7.90;64.93
72925;BME280;61070;50.794;7.054;2024-03-02T02:07:50;99515.91;;;7.88;65.24
72925;BME280;61070;50.794;7.054;2024-03-02T02:08:50;99516.66;;;7.90;65.08
72925;BME280;61070;50.794;7.054;2024-03-02T02:09:50;99515.41;;;7.97;64.63
72925;BME280;61070;50.794;7.054;2024-03-02T02:10:51;99517.19;;;7.81;65.16
72925;BME280;61070;50.794;7.054;2024-03-02T02:11:51;99516.59;;;7.76;65.43
72925;BME280;61070;50.794;7.054;2024-03-02T02:12:52;99517.25;;;7.80;65.56
72925;BME280;61070;50.794;7.054;2024-03-02T02:13:52;99507.31;;;7.86;65.06
72925;BME280;61070;50.794;7.054;2024-03-02T02:14:55;99512.69;;;7.83;65.15
72925;BME280;61070;50.794;7.054;2024-03-02T02:16:04;99513.28;;;7.88;64.94
72925;BME280;61070;50.794;7.054;2024-03-02T02:17:04;99505.78;;;7.82;65.10
72925;BME280;61070;50.794;7.054;2024-03-02T02:18:04;99504.16;;;7.95;64.84
72925;BME280;61070;50.794;7.054;2024-03-02T02:19:05;99504.34;;;7.92;64.78
72925;BME280;61070;50.794;7.054;2024-03-02T02:20:06;99501.25;;;7.86;65.09
72925;BME280;61070;50.794;7.054;2024-03-02T02:21:08;99505.94;;;7.79;65.22
72925;BME280;61070;50.794;7.054;2024-03-02T02:22:12;99496.34;;;7.80;65.42
72925;BME280;61070;50.794;7.054;2024-03-02T02:23:12;99502.59;;;7.77;65.53
72925;BME280;61070;50.794;7.054;2024-03-02T02:24:13;99506.78;;;7.80;65.27
72925;BME280;61070;50.794;7.054;2024-03-02T02:25:14;99509.59;;;7.76;65.53
72925;BME280;61070;50.794;7.054;2024-03-02T02:26:14;99501.16;;;7.71;65.54
72925;BME280;61070;50.794;7.054;2024-03-02T02:27:14;99507.22;;;7.72;65.74
72925;BME280;61070;50.794;7.054;2024-03-02T02:28:15;99505.22;;;7.77;65.24
72925;BME280;61070;50.794;7.054;2024-03-02T02:29:15;99505.25;;;7.75;65.25
72925;BME280;61070;50.794;7.054;2024-03-02T02:30:22;99503.19;;;7.82;64.99
72925;BME280;61070;50.794;7.054;2024-03-02T02:31:23;99512.53;;;7.70;65.35
72925;BME280;61070;50.794;7.054;2024-03-02T02:32:23;99511.44;;;7.59;65.88
72925;BME280;61070;50.794;7.054;2024-03-02T02:33:23;99508.31;;;7.68;65.88
72925;BME280;61070;50.794;7.054;2024-03-02T02:34:24;99502.66;;;7.60;66.16
72925;BME280;61070;50.794;7.054;2024-03-02T02:35:24;99500.13;;;7.74;65.81
72925;BME280;61070;50.794;7.054;2024-03-02T02:36:24;99505.97;;;7.63;65.80
72925;BME280;61070;50.794;7.054;2024-03-02T02:37:25;99505.03;;;7.64;65.92
72925;BME280;61070;50.794;7.054;2024-03-02T02:38:25;99502.50;;;7.63;65.95
72925;BME280;61070;50.794;7.054;2024-03-02T02:39:25;99500.22;;;7.57;66.12
72925;BME280;61070;50.794;7.054;2024-03-02T02:40:26;99498.03;;;7.49;66.44
72925;BME280;61070;50.794;7.054;2024-03-02T02:41:27;99490.78;;;7.54;66.23
72925;BME280;61070;50.794;7.054;2024-03-02T02:42:27;99503.25;;;7.65;66.00
72925;BME280;61070;50.794;7.054;2024-03-02T02:43:27;99500.38;;;7.69;65.98
72925;BME280;61070;50.794;7.054;2024-03-02T02:44:27;99491.44;;;7.73;65.62
72925;BME280;61070;50.794;7.054;2024-03-02T02:45:28;99495.50;;;7.63;66.04
72925;BME280;61070;50.794;7.054;2024-03-02T02:46:28;99504.69;;;7.70;66.08
72925;BME280;61070;50.794;7.054;2024-03-02T02:47:28;99494.16;;;7.88;65.43
72925;BME280;61070;50.794;7.054;2024-03-02T02:48:29;99498.19;;;7.77;65.54
72925;BME280;61070;50.794;7.054;2024-03-02T02:49:31;99505.38;;;7.74;65.50
72925;BME280;61070;50.794;7.054;2024-03-02T02:50:31;99503.78;;;7.71;65.69
72925;BME280;61070;50.794;7.054;2024-03-02T02:51:32;99504.78;;;7.69;65.91
72925;BME280;61070;50.794;7.054;2024-03-02T02:52:33;99501.56;;;7.80;65.58
72925;BME280;61070;50.794;7.054;2024-03-02T02:53:35;99504.84;;;7.83;65.21
72925;BME280;61070;50.794;7.054;2024-03-02T02:54:37;99509.06;;;7.70;65.74
72925;BME280;61070;50.794;7.054;2024-03-02T02:55:39;99508.47;;;7.65;66.00
72925;BME280;61070;50.794;7.054;2024-03-02T02:56:40;99505.22;;;7.77;65.87
72925;BME280;61070;50.794;7.054;2024-03-02T02:57:41;99508.06;;;7.72;65.55
72925;BME280;61070;50.794;7.054;2024-03-02T02:58:42;99515.31;;;7.83;65.64
72925;BME280;61070;50.794;7.054;2024-03-02T02:59:42;99503.19;;;7.82;65.28
72925;BME280;61070;50.794;7.054;2024-03-02T03:00:42;99505.00;;;7.80;65.41
72925;BME280;61070;50.794;7.054;2024-03-02T03:01:43;99507.03;;;7.75;65.51
72925;BME280;61070;50.794;7.054;2024-03-02T03:02:47;99503.69;;;7.73;65.58
72925;BME280;61070;50.794;7.054;2024-03-02T03:03:47;99505.03;;;7.64;66.07
72925;BME280;61070;50.794;7.054;2024-03-02T03:04:47;99504.28;;;7.62;66.05
72925;BME280;61070;50.794;7.054;2024-03-02T03:05:48;99500.63;;;7.65;66.06
72925;BME280;61070;50.794;7.054;2024-03-02T03:06:49;99501.31;;;7.68;66.07
72925;BME280;61070;50.794;7.054;2024-03-02T03:07:49;99503.19;;;7.66;65.82
72925;BME280;61070;50.794;7.054;2024-03-02T03:08:50;99512.19;;;7.61;66.06
72925;BME280;61070;50.794;7.054;2024-03-02T03:09:50;99496.00;;;7.54;66.49
72925;BME280;61070;50.794;7.054;2024-03-02T03:10:50;99503.84;;;7.70;65.96
72925;BME280;61070;50.794;7.054;2024-03-02T03:11:51;99506.88;;;7.78;65.48
72925;BME280;61070;50.794;7.054;2024-03-02T03:12:51;99505.63;;;7.69;65.86
72925;BME280;61070;50.794;7.054;2024-03-02T03:13:52;99499.72;;;7.82;65.35
72925;BME280;61070;50.794;7.054;2024-03-02T03:14:55;99499.44;;;7.70;65.73
72925;BME280;61070;50.794;7.054;2024-03-02T03:15:55;99504.63;;;7.72;65.89
72925;BME280;61070;50.794;7.054;2024-03-02T03:16:55;99499.53;;;7.85;65.55
72925;BME280;61070;50.794;7.054;2024-03-02T03:17:56;99499.72;;;7.82;65.29
72925;BME280;61070;50.794;7.054;2024-03-02T03:18:56;99505.09;;;7.78;65.37
72925;BME280;61070;50.794;7.054;2024-03-02T03:19:56;99504.97;;;7.66;65.81
72925;BME280;61070;50.794;7.054;2024-03-02T03:20:56;99510.00;;;7.69;66.02
72925;BME280;61070;50.794;7.054;2024-03-02T03:21:57;99511.38;;;7.76;65.61
72925;BME280;61070;50.794;7.054;2024-03-02T03:22:57;99511.28;;;7.62;66.10
72925;BME280;61070;50.794;7.054;2024-03-02T03:23:57;99507.03;;;7.75;65.83
72925;BME280;61070;50.794;7.054;2024-03-02T03:24:58;99502.06;;;7.70;65.84
72925;BME280;61070;50.794;7.054;2024-03-02T03:25:58;99500.97;;;7.74;65.46
72925;BME280;61070;50.794;7.054;2024-03-02T03:26:58;99508.16;;;7.71;65.96
72925;BME280;61070;50.794;7.054;2024-03-02T03:27:58;99499.78;;;7.80;65.47
72925;BME280;61070;50.794;7.054;2024-03-02T03:28:59;99502.25;;;7.67;66.04
72925;BME280;61070;50.794;7.054;2024-03-02T03:29:59;99509.16;;;7.68;65.88
72925;BME280;61070;50.794;7.054;2024-03-02T03:30:59;99505.38;;;7.58;65.90
72925;BME280;61070;50.794;7.054;2024-03-02T03:32:00;99504.34;;;7.61;66.20
72925;BME280;61070;50.794;7.054;2024-03-02T03:33:00;99507.97;;;7.58;65.96
72925;BME280;61070;50.794;7.054;2024-03-02T03:34:00;99509.91;;;7.55;66.00
72925;BME280;61070;50.794;7.054;2024-03-02T03:35:00;99512.19;;;7.61;66.03
72925;BME280;61070;50.794;7.054;2024-03-02T03:36:01;99512.88;;;7.64;66.06
72925;BME280;61070;50.794;7.054;2024-03-02T03:37:03;99509.56;;;7.61;66.03
72925;BME280;61070;50.794;7.054;2024-03-02T03:38:03;99512.81;;;7.66;65.92
72925;BME280;61070;50.794;7.054;2024-03-02T03:39:04;99514.03;;;7.74;65.88
72925;BME280;61070;50.794;7.054;2024-03-02T03:40:06;99505.38;;;7.74;65.67
72925;BME280;61070;50.794;7.054;2024-03-02T03:41:15;99511.69;;;7.86;65.22
72925;BME280;61070;50.794;7.054;2024-03-02T03:42:16;99507.22;;;7.72;65.93
72925;BME280;61070;50.794;7.054;2024-03-02T03:43:16;99510.34;;;7.63;65.95
72925;BME280;61070;50.794;7.054;2024-03-02T03:44:16;99513.44;;;7.54;66.35
72925;BME280;61070;50.794;7.054;2024-03-02T03:45:16;99514.28;;;7.54;66.44
72925;BME280;61070;50.794;7.054;2024-03-02T03:46:17;99517.84;;;7.53;66.42
72925;BME280;61070;50.794;7.054;2024-03-02T03:47:17;99516.75;;;7.57;66.16
72925;BME280;61070;50.794;7.054;2024-03-02T03:48:17;99518.88;;;7.66;65.89
72925;BME280;61070;50.794;7.054;2024-03-02T03:49:18;99517.16;;;7.65;65.88
72925;BME280;61070;50.794;7.054;2024-03-02T03:50:19;99519.03;;;7.63;65.88
72925;BME280;61070;50.794;7.054;2024-03-02T03:51:19;99518.94;;;7.65;66.13
72925;BME280;61070;50.794;7.054;2024-03-02T03:52:20;99506.44;;;7.54;66.27
72925;BME280;61070;50.794;7.054;2024-03-02T03:53:21;99508.38;;;7.50;66.32
72925;BME280;61070;50.794;7.054;2024-03-02T03:54:22;99508.31;;;7.52;66.34
72925;BME280;61070;50.794;7.054;2024-03-02T03:55:22;99509.56;;;7.61;66.34
72925;BME280;61070;50.794;7.054;2024-03-02T03:56:22;99505.63;;;7.54;66.31
72925;BME280;61070;50.794;7.054;2024-03-02T03:57:23;99513.44;;;7.54;66.23
72925;BME280;61070;50.794;7.054;2024-03-02T03:58:23;99510.34;;;7.47;66.45
72925;BME280;61070;50.794;7.054;2024-03-02T03:59:23;99510.59;;;7.42;66.71
72925;BME280;61070;50.794;7.054;2024-03-02T04:00:24;99510.34;;;7.47;66.54
72925;BME280;61070;50.794;7.054;2024-03-02T04:01:24;99517.03;;;7.35;66.97
72925;BME280;61070;50.794;7.054;2024-03-02T04:02:24;99517.41;;;7.45;66.96
72925;BME280;61070;50.794;7.054;2024-03-02T04:03:24;99518.06;;;7.33;67.11
72925;BME280;61070;50.794;7.054;2024-03-02T04:04:25;99518.75;;;7.36;67.02
72925;BME280;61070;50.794;7.054;2024-03-02T04:05:25;99522.13;;;7.38;66.84
72925;BME280;61070;50.794;7.054;2024-03-02T04:06:26;99512.50;;;7.39;66.79
72925;BME280;61070;50.794;7.054;2024-03-02T04:07:26;99510.50;;;7.44;66.54
72925;BME280;61070;50.794;7.054;2024-03-02T04:08:26;99514.13;;;7.41;66.86
72925;BME280;61070;50.794;7.054;2024-03-02T04:09:26;99515.22;;;7.37;67.27
72925;BME280;61070;50.794;7.054;2024-03-02T04:10:27;99515.38;;;7.34;66.86
72925;BME280;61070;50.794;7.054;2024-03-02T04:11:27;99517.38;;;7.29;66.92
72925;BME280;61070;50.794;7.054;2024-03-02T04:12:27;99526.72;;;7.17;67.36
72925;BME280;61070;50.794;7.054;2024-03-02T04:13:28;99521.28;;;7.05;67.70
72925;BME280;61070;50.794;7.054;2024-03-02T04:14:28;99515.06;;;7.07;67.79
72925;BME280;61070;50.794;7.054;2024-03-02T04:15:28;99520.66;;;7.17;67.54
72925;BME280;61070;50.794;7.054;2024-03-02T04:16:29;99522.66;;;7.12;67.57
72925;BME280;61070;50.794;7.054;2024-03-02T04:17:31;99525.44;;;7.09;67.76
72925;BME280;61070;50.794;7.054;2024-03-02T04:18:32;99520.91;;;6.95;68.24
72925;BME280;61070;50.794;7.054;2024-03-02T04:19:32;99529.81;;;6.91;68.26
72925;BME280;61070;50.794;7.054;2024-03-02T04:20:32;99524.59;;;6.91;68.47
72925;BME280;61070;50.794;7.054;2024-03-02T04:21:33;99524.50;;;7.10;67.91
72925;BME280;61070;50.794;7.054;2024-03-02T04:22:33;99520.28;;;7.07;67.88
72925;BME280;61070;50.794;7.054;2024-03-02T04:23:35;99527.75;;;6.97;68.34
72925;BME280;61070;50.794;7.054;2024-03-02T04:24:35;99529.81;;;6.91;68.47
72925;BME280;61070;50.794;7.054;2024-03-02T04:25:35;99526.53;;;6.87;68.78
72925;BME280;61070;50.794;7.054;2024-03-02T04:26:36;99524.59;;;6.91;68.58
72925;BME280;61070;50.794;7.054;2024-03-02T04:27:36;99530.22;;;6.83;68.95
72925;BME280;61070;50.794;7.054;2024-03-02T04:28:36;99528.59;;;6.81;68.91
72925;BME280;61070;50.794;7.054;2024-03-02T04:29:37;99539.59;;;6.87;68.91
72925;BME280;61070;50.794;7.054;2024-03-02T04:30:37;99540.91;;;6.79;69.09
72925;BME280;61070;50.794;7.054;2024-03-02T04:31:37;99541.81;;;6.78;69.15
72925;BME280;61070;50.794;7.054;2024-03-02T04:32:37;99542.16;;;6.71;69.44
72925;BME280;61070;50.794;7.054;2024-03-02T04:33:38;99541.44;;;6.68;69.63
72925;BME280;61070;50.794;7.054;2024-03-02T04:34:39;99550.50;;;6.61;69.80
72925;BME280;61070;50.794;7.054;2024-03-02T04:35:39;99557.41;;;6.62;69.97
72925;BME280;61070;50.794;7.054;2024-03-02T04:36:39;99546.41;;;6.55;69.91
72925;BME280;61070;50.794;7.054;2024-03-02T04:37:39;99545.75;;;6.52;70.22
72925;BME280;61070;50.794;7.054;2024-03-02T04:38:40;99546.59;;;6.52;70.23
72925;BME280;61070;50.794;7.054;2024-03-02T04:39:40;99551.47;;;6.76;69.53
72925;BME280;61070;50.794;7.054;2024-03-02T04:40:40;99545.13;;;6.64;69.50
72925;BME280;61070;50.794;7.054;2024-03-02T04:41:41;99543.75;;;6.57;69.98
72925;BME280;61070;50.794;7.054;2024-03-02T04:42:41;99556.53;;;6.61;69.92
72925;BME280;61070;50.794;7.054;2024-03-02T04:43:41;99543.66;;;6.58;69.83
72925;BME280;61070;50.794;7.054;2024-03-02T04:44:41;99548.09;;;6.56;70.18
72925;BME280;61070;50.794;7.054;2024-03-02T04:45:42;99553.88;;;6.63;69.64
72925;BME280;61070;50.794;7.054;2024-03-02T04:46:42;99551.31;;;6.61;69.66
72925;BME280;61070;50.794;7.054;2024-03-02T04:47:43;99544.19;;;6.65;69.58
72925;BME280;61070;50.794;7.054;2024-03-02T04:48:43;99548.72;;;6.79;69.05
72925;BME280;61070;50.794;7.054;2024-03-02T04:49:43;99550.81;;;6.72;69.19
72925;BME280;61070;50.794;7.054;2024-03-02T04:50:44;99560.25;;;6.57;69.65
72925;BME280;61070;50.794;7.054;2024-03-02T04:51:44;99557.78;;;6.54;69.83
72925;BME280;61070;50.794;7.054;2024-03-02T04:52:44;99558.72;;;6.53;69.96
72925;BME280;61070;50.794;7.054;2024-03-02T04:53:44;99557.69;;;6.56;69.91
72925;BME280;61070;50.794;7.054;2024-03-02T04:54:45;99557.47;;;6.60;70.04
72925;BME280;61070;50.794;7.054;2024-03-02T04:56:04;99560.88;;;6.62;69.79
72925;BME280;61070;50.794;7.054;2024-03-02T04:57:30;99569.28;;;6.50;70.22
72925;BME280;61070;50.794;7.054;2024-03-02T04:58:30;99568.75;;;6.43;70.31
72925;BME280;61070;50.794;7.054;2024-03-02T04:59:30;99572.69;;;6.52;70.17
72925;BME280;61070;50.794;7.054;2024-03-02T05:00:31;99572.06;;;6.47;70.35
72925;BME280;61070;50.794;7.054;2024-03-02T05:01:31;99573.13;;;6.60;69.78
72925;BME280;61070;50.794;7.054;2024-03-02T05:02:31;99568.94;;;6.58;70.07
72925;BME280;61070;50.794;7.054;2024-03-02T05:03:32;99579.72;;;6.50;70.30
72925;BME280;61070;50.794;7.054;2024-03-02T05:04:34;99569.50;;;6.45;70.36
72925;BME280;61070;50.794;7.054;2024-03-02T05:05:35;99578.97;;;6.48;70.46
72925;BME280;61070;50.794;7.054;2024-03-02T05:06:35;99575.06;;;6.57;69.90
72925;BME280;61070;50.794;7.054;2024-03-02T05:07:35;99579.19;;;6.61;69.89
72925;BME280;61070;50.794;7.054;2024-03-02T05:08:36;99586.56;;;6.53;70.07
72925;BME280;61070;50.794;7.054;2024-03-02T05:09:36;99589.09;;;6.54;70.08
72925;BME280;61070;50.794;7.054;2024-03-02T05:10:36;99589.09;;;6.54;70.08
72925;BME280;61070;50.794;7.054;2024-03-02T05:11:36;99580.97;;;6.60;70.34
72925;BME280;61070;50.794;7.054;2024-03-02T05:12:37;99590.09;;;6.69;69.76
72925;BME280;61070;50.794;7.054;2024-03-02T05:13:43;99580.50;;;6.69;69.66
72925;BME280;61070;50.794;7.054;2024-03-02T05:14:43;99582.38;;;6.67;69.69
72925;BME280;61070;50.794;7.054;2024-03-02T05:15:43;99582.66;;;6.61;69.83
72925;BME280;61070;50.794;7.054;2024-03-02T05:16:44;99581.00;;;6.78;69.61
72925;BME280;61070;50.794;7.054;2024-03-02T05:17:44;99575.69;;;6.79;69.42
72925;BME280;61070;50.794;7.054;2024-03-02T05:18:44;99571.69;;;6.72;69.32
72925;BME280;61070;50.794;7.054;2024-03-02T05:19:44;99583.66;;;6.59;69.81
72925;BME280;61070;50.794;7.054;2024-03-02T05:20:45;99575.13;;;6.55;70.03
72925;BME280;61070;50.794;7.054;2024-03-02T05:21:45;99572.47;;;6.57;69.91
72925;BME280;61070;50.794;7.054;2024-03-02T05:22:45;99575.66;;;6.44;70.35
72925;BME280;61070;50.794;7.054;2024-03-02T05:23:47;99574.59;;;6.48;70.69
72925;BME280;61070;50.794;7.054;2024-03-02T05:24:47;99572.28;;;6.60;69.95
72925;BME280;61070;50.794;7.054;2024-03-02T05:25:47;99572.06;;;6.64;69.51
72925;BME280;61070;50.794;7.054;2024-03-02T05:26:47;99577.97;;;6.51;70.03
72925;BME280;61070;50.794;7.054;2024-03-02T05:27:48;99577.66;;;6.39;70.66
72925;BME280;61070;50.794;7.054;2024-03-02T05:28:48;99571.09;;;6.31;70.87
72925;BME280;61070;50.794;7.054;2024-03-02T05:29:48;99575.97;;;6.38;71.02